sensor_id;sensor_type;location;lat;lon;timestamp;P1;durP1;ratioP1;P2;durP2;ratioP2
17598;SDS011;8918;52.092;5.232;2024-02-26T00:01:23;5.00;;;3.80;;
17598;SDS011;8918;52.092;5.232;2024-02-26T00:03:49;6.13;;;4.17;;
17598;SDS011;8918;52.092;5.232;2024-02-26T00:06:15;5.10;;;4.00;;
17598;SDS011;8918;52.092;5.232;2024-02-26T00:08:40;5.53;;;4.10;;
17598;SDS011;8918;52.092;5.232;2024-02-26T00:11:06;4.90;;;4.03;;
17598;SDS011;8918;52.092;5.232;2024-02-26T00:13:31;6.20;;;3.90;;
17598;SDS011;8918;52.092;5.232;2024-02-26T00:15:57;7.13;;;4.20;;
17598;SDS011;8918;52.092;5.232;2024-02-26T00:18:24;5.83;;;3.90;;
17598;SDS011;8918;52.092;5.232;2024-02-26T00:20:49;5.70;;;3.93;;
17598;SDS011;8918;52.092;5.232;2024-02-26T00:23:15;4.87;;;3.93;;
17598;SDS011;8918;52.092;5.232;2024-02-26T00:25:41;6.70;;;4.40;;
17598;SDS011;8918;52.092;5.232;2024-02-26T00:28:08;4.40;;;3.80;;
17598;SDS011;8918;52.092;5.232;2024-02-26T00:30:35;6.00;;;4.23;;
17598;SDS011;8918;52.092;5.232;2024-02-26T00:33:00;6.23;;;4.50;;
17598;SDS011;8918;52.092;5.232;2024-02-26T00:35:26;5.13;;;4.17;;
17598;SDS011;8918;52.092;5.232;2024-02-26T00:37:51;6.43;;;4.70;;
17598;SDS011;8918;52.092;5.232;2024-02-26T00:40:17;4.67;;;4.07;;
17598;SDS011;8918;52.092;5.232;2024-02-26T00:42:42;5.37;;;4.57;;
17598;SDS011;8918;52.092;5.232;2024-02-26T00:45:11;6.83;;;4.23;;
17598;SDS011;8918;52.092;5.232;2024-02-26T00:47:37;6.27;;;4.50;;
17598;SDS011;8918;52.092;5.232;2024-02-26T00:50:06;7.23;;;4.57;;
17598;SDS011;8918;52.092;5.232;2024-02-26T00:52:32;6.20;;;4.63;;
17598;SDS011;8918;52.092;5.232;2024-02-26T00:54:57;5.57;;;4.50;;
17598;SDS011;8918;52.092;5.232;2024-02-26T00:57:23;5.60;;;4.60;;
17598;SDS011;8918;52.092;5.232;2024-02-26T00:59:49;5.47;;;4.23;;
17598;SDS011;8918;52.092;5.232;2024-02-26T01:02:15;6.70;;;4.83;;
17598;SDS011;8918;52.092;5.232;2024-02-26T01:04:41;5.47;;;4.97;;
17598;SDS011;8918;52.092;5.232;2024-02-26T01:07:06;5.93;;;5.20;;
17598;SDS011;8918;52.092;5.232;2024-02-26T01:09:32;5.00;;;4.50;;
17598;SDS011;8918;52.092;5.232;2024-02-26T01:11:58;5.60;;;4.63;;
17598;SDS011;8918;52.092;5.232;2024-02-26T01:14:23;8.07;;;5.10;;
17598;SDS011;8918;52.092;5.232;2024-02-26T01:16:49;5.57;;;4.97;;
17598;SDS011;8918;52.092;5.232;2024-02-26T01:19:15;7.80;;;5.30;;
17598;SDS011;8918;52.092;5.232;2024-02-26T01:21:40;6.23;;;4.97;;
17598;SDS011;8918;52.092;5.232;2024-02-26T01:24:06;6.93;;;5.73;;
17598;SDS011;8918;52.092;5.232;2024-02-26T01:26:32;6.83;;;5.20;;
17598;SDS011;8918;52.092;5.232;2024-02-26T01:28:57;7.00;;;5.23;;
17598;SDS011;8918;52.092;5.232;2024-02-26T01:31:23;8.40;;;5.40;;
17598;SDS011;8918;52.092;5.232;2024-02-26T01:33:49;6.40;;;5.20;;
17598;SDS011;8918;52.092;5.232;2024-02-26T01:36:14;5.70;;;5.10;;
17598;SDS011;8918;52.092;5.232;2024-02-26T01:38:40;6.53;;;5.20;;
17598;SDS011;8918;52.092;5.232;2024-02-26T01:41:05;7.50;;;5.43;;
17598;SDS011;8918;52.092;5.232;2024-02-26T01:43:31;6.03;;;5.20;;
17598;SDS011;8918;52.092;5.232;2024-02-26T01:45:57;6.70;;;5.20;;
17598;SDS011;8918;52.092;5.232;2024-02-26T01:48:23;5.70;;;5.10;;
17598;SDS011;8918;52.092;5.232;2024-02-26T01:50:49;6.70;;;5.00;;
17598;SDS011;8918;52.092;5.232;2024-02-26T01:53:15;7.07;;;5.00;;
17598;SDS011;8918;52.092;5.232;2024-02-26T01:55:42;8.67;;;5.47;;
17598;SDS011;8918;52.092;5.232;2024-02-26T01:58:08;6.10;;;5.20;;
17598;SDS011;8918;52.092;5.232;2024-02-26T02:00:34;6.73;;;4.90;;
17598;SDS011;8918;52.092;5.232;2024-02-26T02:03:00;6.03;;;5.00;;
17598;SDS011;8918;52.092;5.232;2024-02-26T02:05:27;6.77;;;4.90;;
17598;SDS011;8918;52.092;5.232;2024-02-26T02:07:53;8.00;;;5.00;;
17598;SDS011;8918;52.092;5.232;2024-02-26T02:10:19;7.53;;;4.83;;
17598;SDS011;8918;52.092;5.232;2024-02-26T02:12:48;7.13;;;5.30;;
17598;SDS011;8918;52.092;5.232;2024-02-26T02:15:14;6.70;;;5.10;;
17598;SDS011;8918;52.092;5.232;2024-02-26T02:17:39;8.33;;;5.67;;
17598;SDS011;8918;52.092;5.232;2024-02-26T02:20:08;7.50;;;5.70;;
17598;SDS011;8918;52.092;5.232;2024-02-26T02:22:44;5.87;;;4.80;;
17598;SDS011;8918;52.092;5.232;2024-02-26T02:25:10;7.53;;;5.27;;
17598;SDS011;8918;52.092;5.232;2024-02-26T02:27:35;7.47;;;5.47;;
17598;SDS011;8918;52.092;5.232;2024-02-26T02:30:01;6.80;;;5.07;;
17598;SDS011;8918;52.092;5.232;2024-02-26T02:32:28;6.93;;;5.40;;
17598;SDS011;8918;52.092;5.232;2024-02-26T02:34:55;8.10;;;5.27;;
17598;SDS011;8918;52.092;5.232;2024-02-26T02:37:21;6.50;;;5.40;;
17598;SDS011;8918;52.092;5.232;2024-02-26T02:39:47;6.63;;;5.17;;
17598;SDS011;8918;52.092;5.232;2024-02-26T02:42:12;7.80;;;5.53;;
17598;SDS011;8918;52.092;5.232;2024-02-26T02:44:39;8.10;;;5.33;;
17598;SDS011;8918;52.092;5.232;2024-02-26T02:47:04;6.87;;;5.43;;
17598;SDS011;8918;52.092;5.232;2024-02-26T02:49:30;7.00;;;5.67;;
17598;SDS011;8918;52.092;5.232;2024-02-26T02:51:55;6.67;;;5.40;;
17598;SDS011;8918;52.092;5.232;2024-02-26T02:54:22;6.17;;;4.87;;
17598;SDS011;8918;52.092;5.232;2024-02-26T02:56:48;6.67;;;5.43;;
17598;SDS011;8918;52.092;5.232;2024-02-26T02:59:14;7.77;;;5.57;;
17598;SDS011;8918;52.092;5.232;2024-02-26T03:01:39;6.73;;;4.90;;
17598;SDS011;8918;52.092;5.232;2024-02-26T03:04:05;6.83;;;5.00;;
17598;SDS011;8918;52.092;5.232;2024-02-26T03:06:30;7.03;;;5.33;;
17598;SDS011;8918;52.092;5.232;2024-02-26T03:08:56;6.67;;;5.20;;
17598;SDS011;8918;52.092;5.232;2024-02-26T03:11:22;6.93;;;5.27;;
17598;SDS011;8918;52.092;5.232;2024-02-26T03:13:47;5.80;;;5.00;;
17598;SDS011;8918;52.092;5.232;2024-02-26T03:16:13;6.80;;;5.23;;
17598;SDS011;8918;52.092;5.232;2024-02-26T03:18:39;6.80;;;5.43;;
17598;SDS011;8918;52.092;5.232;2024-02-26T03:21:05;7.47;;;5.30;;
17598;SDS011;8918;52.092;5.232;2024-02-26T03:23:31;6.83;;;5.63;;
17598;SDS011;8918;52.092;5.232;2024-02-26T03:26:01;6.77;;;5.60;;
17598;SDS011;8918;52.092;5.232;2024-02-26T03:28:29;7.53;;;5.60;;
17598;SDS011;8918;52.092;5.232;2024-02-26T03:30:58;6.90;;;5.40;;
17598;SDS011;8918;52.092;5.232;2024-02-26T03:33:24;6.93;;;5.47;;
17598;SDS011;8918;52.092;5.232;2024-02-26T03:35:49;7.10;;;5.83;;
17598;SDS011;8918;52.092;5.232;2024-02-26T03:38:15;8.40;;;5.87;;
17598;SDS011;8918;52.092;5.232;2024-02-26T03:40:41;6.97;;;5.70;;
17598;SDS011;8918;52.092;5.232;2024-02-26T03:43:06;8.13;;;5.73;;
17598;SDS011;8918;52.092;5.232;2024-02-26T03:45:32;9.37;;;6.07;;
17598;SDS011;8918;52.092;5.232;2024-02-26T03:47:58;7.83;;;6.20;;
17598;SDS011;8918;52.092;5.232;2024-02-26T03:50:24;8.13;;;6.37;;
17598;SDS011;8918;52.092;5.232;2024-02-26T03:52:49;10.30;;;6.70;;
17598;SDS011;8918;52.092;5.232;2024-02-26T03:55:15;7.27;;;5.90;;
17598;SDS011;8918;52.092;5.232;2024-02-26T03:57:43;8.47;;;6.23;;
17598;SDS011;8918;52.092;5.232;2024-02-26T04:00:08;10.03;;;6.53;;
17598;SDS011;8918;52.092;5.232;2024-02-26T04:02:34;7.73;;;6.20;;
17598;SDS011;8918;52.092;5.232;2024-02-26T04:05:00;9.87;;;6.67;;
17598;SDS011;8918;52.092;5.232;2024-02-26T04:07:26;10.30;;;6.83;;
17598;SDS011;8918;52.092;5.232;2024-02-26T04:09:51;8.63;;;6.57;;
17598;SDS011;8918;52.092;5.232;2024-02-26T04:12:17;9.90;;;6.50;;
17598;SDS011;8918;52.092;5.232;2024-02-26T04:14:44;7.67;;;6.20;;
17598;SDS011;8918;52.092;5.232;2024-02-26T04:17:09;9.63;;;6.47;;
17598;SDS011;8918;52.092;5.232;2024-02-26T04:19:36;9.07;;;6.53;;
17598;SDS011;8918;52.092;5.232;2024-02-26T04:22:01;7.60;;;5.93;;
17598;SDS011;8918;52.092;5.232;2024-02-26T04:24:27;9.80;;;7.10;;
17598;SDS011;8918;52.092;5.232;2024-02-26T04:26:53;10.17;;;7.00;;
17598;SDS011;8918;52.092;5.232;2024-02-26T04:29:19;9.70;;;6.77;;
17598;SDS011;8918;52.092;5.232;2024-02-26T04:31:44;10.03;;;7.17;;
17598;SDS011;8918;52.092;5.232;2024-02-26T04:34:11;11.30;;;6.43;;
17598;SDS011;8918;52.092;5.232;2024-02-26T04:36:37;8.47;;;6.40;;
17598;SDS011;8918;52.092;5.232;2024-02-26T04:39:02;9.13;;;6.77;;
17598;SDS011;8918;52.092;5.232;2024-02-26T04:41:28;9.83;;;6.80;;
17598;SDS011;8918;52.092;5.232;2024-02-26T04:43:54;8.77;;;6.17;;
17598;SDS011;8918;52.092;5.232;2024-02-26T04:46:19;8.37;;;6.03;;
17598;SDS011;8918;52.092;5.232;2024-02-26T04:48:46;9.83;;;6.90;;
17598;SDS011;8918;52.092;5.232;2024-02-26T04:51:12;9.70;;;6.90;;
17598;SDS011;8918;52.092;5.232;2024-02-26T04:53:38;8.97;;;7.07;;
17598;SDS011;8918;52.092;5.232;2024-02-26T04:56:04;10.33;;;7.33;;
17598;SDS011;8918;52.092;5.232;2024-02-26T04:58:30;10.27;;;7.23;;
17598;SDS011;8918;52.092;5.232;2024-02-26T05:00:55;10.27;;;7.30;;
17598;SDS011;8918;52.092;5.232;2024-02-26T05:03:24;10.50;;;7.63;;
17598;SDS011;8918;52.092;5.232;2024-02-26T05:05:49;10.27;;;7.33;;
17598;SDS011;8918;52.092;5.232;2024-02-26T05:08:15;10.23;;;7.37;;
17598;SDS011;8918;52.092;5.232;2024-02-26T05:10:40;9.93;;;7.43;;
17598;SDS011;8918;52.092;5.232;2024-02-26T05:13:09;10.60;;;7.87;;
17598;SDS011;8918;52.092;5.232;2024-02-26T05:15:35;11.77;;;7.83;;
17598;SDS011;8918;52.092;5.232;2024-02-26T05:18:01;12.03;;;8.13;;
17598;SDS011;8918;52.092;5.232;2024-02-26T05:20:27;12.07;;;8.47;;
17598;SDS011;8918;52.092;5.232;2024-02-26T05:22:53;10.60;;;7.70;;
17598;SDS011;8918;52.092;5.232;2024-02-26T05:25:19;11.63;;;7.73;;
17598;SDS011;8918;52.092;5.232;2024-02-26T05:27:45;11.87;;;8.10;;
17598;SDS011;8918;52.092;5.232;2024-02-26T05:30:11;10.93;;;7.80;;
17598;SDS011;8918;52.092;5.232;2024-02-26T05:32:37;11.00;;;7.97;;
17598;SDS011;8918;52.092;5.232;2024-02-26T05:35:03;11.40;;;8.47;;
17598;SDS011;8918;52.092;5.232;2024-02-26T05:37:29;10.77;;;8.17;;
17598;SDS011;8918;52.092;5.232;2024-02-26T05:39:55;11.40;;;7.80;;
17598;SDS011;8918;52.092;5.232;2024-02-26T05:42:23;12.10;;;8.07;;
17598;SDS011;8918;52.092;5.232;2024-02-26T05:44:48;11.00;;;8.20;;
17598;SDS011;8918;52.092;5.232;2024-02-26T05:47:14;11.57;;;8.60;;
17598;SDS011;8918;52.092;5.232;2024-02-26T05:49:39;12.03;;;8.80;;
17598;SDS011;8918;52.092;5.232;2024-02-26T05:52:05;11.37;;;8.43;;
17598;SDS011;8918;52.092;5.232;2024-02-26T05:54:31;12.67;;;8.67;;
17598;SDS011;8918;52.092;5.232;2024-02-26T05:56:57;13.73;;;8.53;;
17598;SDS011;8918;52.092;5.232;2024-02-26T05:59:23;11.53;;;8.30;;
17598;SDS011;8918;52.092;5.232;2024-02-26T06:01:48;12.47;;;8.70;;
17598;SDS011;8918;52.092;5.232;2024-02-26T06:04:14;11.37;;;8.67;;
17598;SDS011;8918;52.092;5.232;2024-02-26T06:06:40;11.77;;;8.40;;
17598;SDS011;8918;52.092;5.232;2024-02-26T06:09:05;12.00;;;8.73;;
17598;SDS011;8918;52.092;5.232;2024-02-26T06:11:31;13.50;;;9.20;;
17598;SDS011;8918;52.092;5.232;2024-02-26T06:13:56;13.83;;;9.63;;
17598;SDS011;8918;52.092;5.232;2024-02-26T06:16:24;12.03;;;8.53;;
17598;SDS011;8918;52.092;5.232;2024-02-26T06:18:50;15.63;;;8.83;;
17598;SDS011;8918;52.092;5.232;2024-02-26T06:21:15;12.27;;;8.70;;
17598;SDS011;8918;52.092;5.232;2024-02-26T06:23:41;12.00;;;8.57;;
17598;SDS011;8918;52.092;5.232;2024-02-26T06:26:06;13.87;;;8.87;;
17598;SDS011;8918;52.092;5.232;2024-02-26T06:28:32;13.33;;;9.30;;
17598;SDS011;8918;52.092;5.232;2024-02-26T06:30:59;15.73;;;9.60;;
17598;SDS011;8918;52.092;5.232;2024-02-26T06:33:24;13.63;;;9.07;;
17598;SDS011;8918;52.092;5.232;2024-02-26T06:35:50;15.37;;;9.53;;
17598;SDS011;8918;52.092;5.232;2024-02-26T06:38:16;14.50;;;9.43;;
17598;SDS011;8918;52.092;5.232;2024-02-26T06:40:42;14.97;;;9.73;;
17598;SDS011;8918;52.092;5.232;2024-02-26T06:43:08;16.87;;;10.37;;
17598;SDS011;8918;52.092;5.232;2024-02-26T06:45:34;15.17;;;10.30;;
17598;SDS011;8918;52.092;5.232;2024-02-26T06:48:00;15.80;;;9.90;;
17598;SDS011;8918;52.092;5.232;2024-02-26T06:50:26;16.77;;;10.80;;
17598;SDS011;8918;52.092;5.232;2024-02-26T06:52:51;15.87;;;10.57;;
17598;SDS011;8918;52.092;5.232;2024-02-26T06:55:17;18.57;;;11.20;;
17598;SDS011;8918;52.092;5.232;2024-02-26T06:57:43;18.00;;;11.50;;
17598;SDS011;8918;52.092;5.232;2024-02-26T07:00:08;18.30;;;11.63;;
17598;SDS011;8918;52.092;5.232;2024-02-26T07:02:39;20.57;;;12.70;;
17598;SDS011;8918;52.092;5.232;2024-02-26T07:05:05;20.70;;;12.23;;
17598;SDS011;8918;52.092;5.232;2024-02-26T07:07:31;21.77;;;13.23;;
17598;SDS011;8918;52.092;5.232;2024-02-26T07:09:57;21.73;;;13.00;;
17598;SDS011;8918;52.092;5.232;2024-02-26T07:12:22;23.50;;;13.33;;
17598;SDS011;8918;52.092;5.232;2024-02-26T07:14:48;22.83;;;14.23;;
17598;SDS011;8918;52.092;5.232;2024-02-26T07:17:15;26.10;;;15.20;;
17598;SDS011;8918;52.092;5.232;2024-02-26T07:19:41;25.17;;;15.07;;
17598;SDS011;8918;52.092;5.232;2024-02-26T07:22:07;26.90;;;15.40;;
17598;SDS011;8918;52.092;5.232;2024-02-26T07:24:32;30.93;;;17.67;;
17598;SDS011;8918;52.092;5.232;2024-02-26T07:26:58;29.23;;;16.33;;
17598;SDS011;8918;52.092;5.232;2024-02-26T07:29:23;28.17;;;16.93;;
17598;SDS011;8918;52.092;5.232;2024-02-26T07:31:49;27.03;;;17.03;;
17598;SDS011;8918;52.092;5.232;2024-02-26T07:34:14;28.17;;;16.97;;
17598;SDS011;8918;52.092;5.232;2024-02-26T07:36:40;31.57;;;18.80;;
17598;SDS011;8918;52.092;5.232;2024-02-26T07:39:06;29.27;;;18.10;;
17598;SDS011;8918;52.092;5.232;2024-02-26T07:41:31;30.90;;;18.67;;
17598;SDS011;8918;52.092;5.232;2024-02-26T07:43:57;29.90;;;18.27;;
17598;SDS011;8918;52.092;5.232;2024-02-26T07:46:22;32.40;;;18.93;;
17598;SDS011;8918;52.092;5.232;2024-02-26T07:48:48;32.50;;;18.73;;
17598;SDS011;8918;52.092;5.232;2024-02-26T07:51:14;29.97;;;18.07;;
17598;SDS011;8918;52.092;5.232;2024-02-26T07:53:40;30.60;;;17.97;;
17598;SDS011;8918;52.092;5.232;2024-02-26T07:56:05;30.53;;;17.87;;
17598;SDS011;8918;52.092;5.232;2024-02-26T07:58:34;31.67;;;17.90;;
17598;SDS011;8918;52.092;5.232;2024-02-26T08:01:00;31.70;;;17.63;;
17598;SDS011;8918;52.092;5.232;2024-02-26T08:03:25;29.77;;;18.20;;
17598;SDS011;8918;52.092;5.232;2024-02-26T08:05:51;28.37;;;16.93;;
17598;SDS011;8918;52.092;5.232;2024-02-26T08:08:17;28.07;;;17.47;;
17598;SDS011;8918;52.092;5.232;2024-02-26T08:10:43;26.80;;;17.30;;
17598;SDS011;8918;52.092;5.232;2024-02-26T08:13:08;25.13;;;15.73;;
17598;SDS011;8918;52.092;5.232;2024-02-26T08:15:37;26.13;;;16.47;;
17598;SDS011;8918;52.092;5.232;2024-02-26T08:18:03;25.07;;;15.77;;
17598;SDS011;8918;52.092;5.232;2024-02-26T08:20:29;23.60;;;14.93;;
17598;SDS011;8918;52.092;5.232;2024-02-26T08:22:55;21.50;;;14.73;;
17598;SDS011;8918;52.092;5.232;2024-02-26T08:25:21;19.47;;;13.37;;
17598;SDS011;8918;52.092;5.232;2024-02-26T08:27:47;19.33;;;13.20;;
17598;SDS011;8918;52.092;5.232;2024-02-26T08:30:14;18.33;;;12.13;;
17598;SDS011;8918;52.092;5.232;2024-02-26T08:32:44;18.43;;;12.20;;
17598;SDS011;8918;52.092;5.232;2024-02-26T08:35:10;19.03;;;11.40;;
17598;SDS011;8918;52.092;5.232;2024-02-26T08:37:36;15.87;;;11.50;;
17598;SDS011;8918;52.092;5.232;2024-02-26T08:40:02;17.70;;;11.27;;
17598;SDS011;8918;52.092;5.232;2024-02-26T08:42:29;15.07;;;10.63;;
17598;SDS011;8918;52.092;5.232;2024-02-26T08:44:54;17.23;;;10.63;;
17598;SDS011;8918;52.092;5.232;2024-02-26T08:47:20;15.20;;;10.73;;
17598;SDS011;8918;52.092;5.232;2024-02-26T08:49:45;15.37;;;10.07;;
17598;SDS011;8918;52.092;5.232;2024-02-26T08:52:11;15.73;;;12.32;;
17598;SDS011;8918;52.092;5.232;2024-02-26T08:54:37;15.63;;;10.50;;
17598;SDS011;8918;52.092;5.232;2024-02-26T08:57:02;13.40;;;9.83;;
17598;SDS011;8918;52.092;5.232;2024-02-26T08:59:28;15.53;;;10.27;;
17598;SDS011;8918;52.092;5.232;2024-02-26T09:01:54;14.17;;;9.97;;
17598;SDS011;8918;52.092;5.232;2024-02-26T09:04:20;15.43;;;9.80;;
17598;SDS011;8918;52.092;5.232;2024-02-26T09:06:46;14.17;;;9.13;;
17598;SDS011;8918;52.092;5.232;2024-02-26T09:09:12;13.57;;;8.97;;
17598;SDS011;8918;52.092;5.232;2024-02-26T09:11:37;14.33;;;9.00;;
17598;SDS011;8918;52.092;5.232;2024-02-26T09:14:03;13.53;;;8.80;;
17598;SDS011;8918;52.092;5.232;2024-02-26T09:16:29;13.27;;;8.67;;
17598;SDS011;8918;52.092;5.232;2024-02-26T09:18:56;12.77;;;8.83;;
17598;SDS011;8918;52.092;5.232;2024-02-26T09:21:22;13.10;;;8.33;;
17598;SDS011;8918;52.092;5.232;2024-02-26T09:23:49;13.87;;;8.60;;
17598;SDS011;8918;52.092;5.232;2024-02-26T09:26:18;12.20;;;8.27;;
17598;SDS011;8918;52.092;5.232;2024-02-26T09:28:44;11.70;;;8.10;;
17598;SDS011;8918;52.092;5.232;2024-02-26T09:31:10;11.23;;;7.73;;
17598;SDS011;8918;52.092;5.232;2024-02-26T09:33:36;9.77;;;7.10;;
17598;SDS011;8918;52.092;5.232;2024-02-26T09:36:02;13.90;;;7.67;;
17598;SDS011;8918;52.092;5.232;2024-02-26T09:38:29;10.27;;;6.63;;
17598;SDS011;8918;52.092;5.232;2024-02-26T09:40:56;10.70;;;7.07;;
17598;SDS011;8918;52.092;5.232;2024-02-26T09:43:22;10.73;;;6.33;;
17598;SDS011;8918;52.092;5.232;2024-02-26T09:45:52;10.40;;;7.07;;
17598;SDS011;8918;52.092;5.232;2024-02-26T09:48:18;10.83;;;7.73;;
17598;SDS011;8918;52.092;5.232;2024-02-26T09:50:45;12.00;;;7.17;;
17598;SDS011;8918;52.092;5.232;2024-02-26T09:53:11;18.73;;;6.87;;
17598;SDS011;8918;52.092;5.232;2024-02-26T09:55:38;10.00;;;6.50;;
17598;SDS011;8918;52.092;5.232;2024-02-26T09:58:04;9.27;;;6.70;;
17598;SDS011;8918;52.092;5.232;2024-02-26T10:00:31;8.70;;;6.37;;
17598;SDS011;8918;52.092;5.232;2024-02-26T10:03:06;10.53;;;6.93;;
17598;SDS011;8918;52.092;5.232;2024-02-26T10:05:41;9.73;;;6.70;;
17598;SDS011;8918;52.092;5.232;2024-02-26T10:08:08;10.63;;;7.00;;
17598;SDS011;8918;52.092;5.232;2024-02-26T10:10:34;11.20;;;7.10;;
17598;SDS011;8918;52.092;5.232;2024-02-26T10:13:01;11.03;;;7.17;;
17598;SDS011;8918;52.092;5.232;2024-02-26T10:15:30;11.13;;;7.10;;
17598;SDS011;8918;52.092;5.232;2024-02-26T10:17:56;10.70;;;7.30;;
17598;SDS011;8918;52.092;5.232;2024-02-26T10:20:22;10.17;;;7.07;;
17598;SDS011;8918;52.092;5.232;2024-02-26T10:22:48;11.10;;;6.90;;
17598;SDS011;8918;52.092;5.232;2024-02-26T10:25:14;9.17;;;6.47;;
17598;SDS011;8918;52.092;5.232;2024-02-26T10:27:40;9.00;;;6.40;;
17598;SDS011;8918;52.092;5.232;2024-02-26T10:30:22;11.33;;;7.30;;
17598;SDS011;8918;52.092;5.232;2024-02-26T10:32:50;11.63;;;7.33;;
17598;SDS011;8918;52.092;5.232;2024-02-26T10:35:17;10.97;;;6.73;;
17598;SDS011;8918;52.092;5.232;2024-02-26T10:37:43;10.73;;;6.77;;
17598;SDS011;8918;52.092;5.232;2024-02-26T10:40:10;11.83;;;7.50;;
17598;SDS011;8918;52.092;5.232;2024-02-26T10:42:39;8.93;;;6.30;;
17598;SDS011;8918;52.092;5.232;2024-02-26T10:45:06;11.53;;;7.03;;
17598;SDS011;8918;52.092;5.232;2024-02-26T10:47:34;9.50;;;6.70;;
17598;SDS011;8918;52.092;5.232;2024-02-26T10:50:03;9.43;;;6.77;;
17598;SDS011;8918;52.092;5.232;2024-02-26T10:52:34;10.50;;;6.80;;
17598;SDS011;8918;52.092;5.232;2024-02-26T10:55:01;10.37;;;7.30;;
17598;SDS011;8918;52.092;5.232;2024-02-26T11:00:02;10.33;;;6.40;;
17598;SDS011;8918;52.092;5.232;2024-02-26T11:02:30;8.37;;;5.97;;
17598;SDS011;8918;52.092;5.232;2024-02-26T11:05:02;9.70;;;6.40;;
17598;SDS011;8918;52.092;5.232;2024-02-26T11:07:31;8.93;;;6.50;;
17598;SDS011;8918;52.092;5.232;2024-02-26T11:09:59;9.23;;;6.63;;
17598;SDS011;8918;52.092;5.232;2024-02-26T11:12:25;9.17;;;6.53;;
17598;SDS011;8918;52.092;5.232;2024-02-26T11:14:53;9.43;;;6.20;;
17598;SDS011;8918;52.092;5.232;2024-02-26T11:17:21;8.50;;;6.27;;
17598;SDS011;8918;52.092;5.232;2024-02-26T11:19:49;8.83;;;6.23;;
17598;SDS011;8918;52.092;5.232;2024-02-26T11:22:16;8.93;;;6.43;;
17598;SDS011;8918;52.092;5.232;2024-02-26T11:24:42;9.73;;;6.67;;
17598;SDS011;8918;52.092;5.232;2024-02-26T11:27:09;8.97;;;6.20;;
17598;SDS011;8918;52.092;5.232;2024-02-26T11:29:40;9.40;;;6.90;;
17598;SDS011;8918;52.092;5.232;2024-02-26T11:32:15;10.27;;;6.80;;
17598;SDS011;8918;52.092;5.232;2024-02-26T11:34:41;10.23;;;6.70;;
17598;SDS011;8918;52.092;5.232;2024-02-26T11:37:14;8.77;;;6.17;;
17598;SDS011;8918;52.092;5.232;2024-02-26T11:39:41;8.80;;;6.40;;
17598;SDS011;8918;52.092;5.232;2024-02-26T11:42:07;9.43;;;6.40;;
17598;SDS011;8918;52.092;5.232;2024-02-26T11:44:34;9.20;;;6.37;;
17598;SDS011;8918;52.092;5.232;2024-02-26T11:47:22;10.33;;;6.57;;
17598;SDS011;8918;52.092;5.232;2024-02-26T11:49:47;8.53;;;6.73;;
17598;SDS011;8918;52.092;5.232;2024-02-26T11:52:14;8.90;;;6.40;;
17598;SDS011;8918;52.092;5.232;2024-02-26T11:57:24;8.03;;;5.87;;
17598;SDS011;8918;52.092;5.232;2024-02-26T12:00:11;10.80;;;6.67;;
17598;SDS011;8918;52.092;5.232;2024-02-26T12:02:41;8.70;;;6.30;;
17598;SDS011;8918;52.092;5.232;2024-02-26T12:05:16;8.83;;;6.57;;
17598;SDS011;8918;52.092;5.232;2024-02-26T12:07:46;9.63;;;6.93;;
17598;SDS011;8918;52.092;5.232;2024-02-26T12:10:23;9.87;;;6.73;;
17598;SDS011;8918;52.092;5.232;2024-02-26T12:12:59;9.00;;;6.27;;
17598;SDS011;8918;52.092;5.232;2024-02-26T12:15:33;8.80;;;6.30;;
17598;SDS011;8918;52.092;5.232;2024-02-26T12:18:01;8.70;;;6.47;;
17598;SDS011;8918;52.092;5.232;2024-02-26T12:20:28;8.97;;;6.00;;
17598;SDS011;8918;52.092;5.232;2024-02-26T12:22:54;9.97;;;6.30;;
17598;SDS011;8918;52.092;5.232;2024-02-26T12:25:22;9.30;;;6.50;;
17598;SDS011;8918;52.092;5.232;2024-02-26T12:27:53;9.70;;;6.80;;
17598;SDS011;8918;52.092;5.232;2024-02-26T12:30:19;8.10;;;6.20;;
17598;SDS011;8918;52.092;5.232;2024-02-26T12:32:48;10.90;;;6.60;;
17598;SDS011;8918;52.092;5.232;2024-02-26T12:35:15;9.10;;;6.47;;
17598;SDS011;8918;52.092;5.232;2024-02-26T12:37:42;11.60;;;6.10;;
17598;SDS011;8918;52.092;5.232;2024-02-26T12:40:11;10.40;;;6.37;;
17598;SDS011;8918;52.092;5.232;2024-02-26T12:42:38;7.97;;;6.00;;
17598;SDS011;8918;52.092;5.232;2024-02-26T12:45:05;8.53;;;5.90;;
17598;SDS011;8918;52.092;5.232;2024-02-26T12:47:35;8.60;;;6.13;;
17598;SDS011;8918;52.092;5.232;2024-02-26T12:50:02;10.30;;;6.97;;
17598;SDS011;8918;52.092;5.232;2024-02-26T12:52:29;8.67;;;6.10;;
17598;SDS011;8918;52.092;5.232;2024-02-26T12:54:56;8.70;;;6.20;;
17598;SDS011;8918;52.092;5.232;2024-02-26T12:57:25;8.47;;;6.03;;
17598;SDS011;8918;52.092;5.232;2024-02-26T12:59:51;8.03;;;6.07;;
17598;SDS011;8918;52.092;5.232;2024-02-26T13:02:18;8.47;;;6.33;;
17598;SDS011;8918;52.092;5.232;2024-02-26T13:04:43;8.10;;;6.00;;
17598;SDS011;8918;52.092;5.232;2024-02-26T13:07:09;8.13;;;5.90;;
17598;SDS011;8918;52.092;5.232;2024-02-26T13:09:35;7.90;;;5.83;;
17598;SDS011;8918;52.092;5.232;2024-02-26T13:12:03;8.13;;;6.00;;
17598;SDS011;8918;52.092;5.232;2024-02-26T13:14:32;8.87;;;6.23;;
17598;SDS011;8918;52.092;5.232;2024-02-26T13:17:01;8.47;;;5.70;;
17598;SDS011;8918;52.092;5.232;2024-02-26T13:19:28;8.43;;;5.83;;
17598;SDS011;8918;52.092;5.232;2024-02-26T13:21:53;6.90;;;5.33;;
17598;SDS011;8918;52.092;5.232;2024-02-26T13:24:20;8.30;;;6.03;;
17598;SDS011;8918;52.092;5.232;2024-02-26T13:26:47;7.67;;;5.90;;
17598;SDS011;8918;52.092;5.232;2024-02-26T13:29:22;7.37;;;5.70;;
17598;SDS011;8918;52.092;5.232;2024-02-26T13:31:47;8.70;;;5.90;;
17598;SDS011;8918;52.092;5.232;2024-02-26T13:34:24;7.00;;;5.47;;
17598;SDS011;8918;52.092;5.232;2024-02-26T13:36:51;7.00;;;5.30;;
17598;SDS011;8918;52.092;5.232;2024-02-26T13:39:24;7.47;;;5.23;;
17598;SDS011;8918;52.092;5.232;2024-02-26T13:41:51;7.73;;;5.30;;
17598;SDS011;8918;52.092;5.232;2024-02-26T13:44:17;7.80;;;5.80;;
17598;SDS011;8918;52.092;5.232;2024-02-26T13:46:44;7.40;;;4.80;;
17598;SDS011;8918;52.092;5.232;2024-02-26T13:49:09;7.03;;;4.87;;
17598;SDS011;8918;52.092;5.232;2024-02-26T13:51:36;7.40;;;5.50;;
17598;SDS011;8918;52.092;5.232;2024-02-26T13:54:02;6.17;;;4.10;;
17598;SDS011;8918;52.092;5.232;2024-02-26T13:56:28;7.53;;;5.37;;
17598;SDS011;8918;52.092;5.232;2024-02-26T13:58:54;6.17;;;4.83;;
17598;SDS011;8918;52.092;5.232;2024-02-26T14:01:20;7.73;;;5.03;;
17598;SDS011;8918;52.092;5.232;2024-02-26T14:03:45;8.27;;;4.77;;
17598;SDS011;8918;52.092;5.232;2024-02-26T14:06:11;8.90;;;5.80;;
17598;SDS011;8918;52.092;5.232;2024-02-26T14:08:37;6.80;;;5.30;;
17598;SDS011;8918;52.092;5.232;2024-02-26T14:11:02;7.03;;;5.17;;
17598;SDS011;8918;52.092;5.232;2024-02-26T14:13:28;6.50;;;4.87;;
17598;SDS011;8918;52.092;5.232;2024-02-26T14:15:54;7.07;;;4.70;;
17598;SDS011;8918;52.092;5.232;2024-02-26T14:18:19;7.50;;;4.57;;
17598;SDS011;8918;52.092;5.232;2024-02-26T14:20:45;6.93;;;5.00;;
17598;SDS011;8918;52.092;5.232;2024-02-26T14:23:10;5.63;;;4.50;;
17598;SDS011;8918;52.092;5.232;2024-02-26T14:25:36;5.17;;;4.53;;
17598;SDS011;8918;52.092;5.232;2024-02-26T14:28:02;5.47;;;4.23;;
17598;SDS011;8918;52.092;5.232;2024-02-26T14:30:28;6.70;;;4.73;;
17598;SDS011;8918;52.092;5.232;2024-02-26T14:32:54;5.37;;;4.50;;
17598;SDS011;8918;52.092;5.232;2024-02-26T14:35:20;5.53;;;4.07;;
17598;SDS011;8918;52.092;5.232;2024-02-26T14:37:46;5.77;;;4.47;;
17598;SDS011;8918;52.092;5.232;2024-02-26T14:40:12;5.40;;;4.40;;
17598;SDS011;8918;52.092;5.232;2024-02-26T14:42:39;6.07;;;4.20;;
17598;SDS011;8918;52.092;5.232;2024-02-26T14:45:05;7.03;;;4.50;;
17598;SDS011;8918;52.092;5.232;2024-02-26T14:47:34;6.10;;;4.17;;
17598;SDS011;8918;52.092;5.232;2024-02-26T14:50:00;5.63;;;4.43;;
17598;SDS011;8918;52.092;5.232;2024-02-26T14:52:25;5.60;;;4.30;;
17598;SDS011;8918;52.092;5.232;2024-02-26T14:54:51;6.33;;;4.20;;